sensor_id;sensor_type;location;lat;lon;timestamp;P1;durP1;ratioP1;P2;durP2;ratioP2
7377;SDS011;3730;50.856;12.776;2022-09-12T00:01:31;12.27;;;11.03;;
7377;SDS011;3730;50.856;12.776;2022-09-12T00:03:58;15.10;;;11.37;;
7377;SDS011;3730;50.856;12.776;2022-09-12T00:06:27;13.57;;;12.13;;
7377;SDS011;3730;50.856;12.776;2022-09-12T00:08:53;13.07;;;11.67;;
7377;SDS011;3730;50.856;12.776;2022-09-12T00:11:20;13.67;;;12.27;;
7377;SDS011;3730;50.856;12.776;2022-09-12T00:13:47;13.03;;;11.63;;
7377;SDS011;3730;50.856;12.776;2022-09-12T00:16:14;13.67;;;12.27;;
7377;SDS011;3730;50.856;12.776;2022-09-12T00:18:40;12.57;;;11.27;;
7377;SDS011;3730;50.856;12.776;2022-09-12T00:21:06;11.57;;;10.47;;
7377;SDS011;3730;50.856;12.776;2022-09-12T00:23:32;12.33;;;11.03;;
7377;SDS011;3730;50.856;12.776;2022-09-12T00:25:58;13.07;;;11.43;;
7377;SDS011;3730;50.856;12.776;2022-09-12T00:28:26;12.60;;;11.03;;
7377;SDS011;3730;50.856;12.776;2022-09-12T00:30:52;14.53;;;12.50;;
7377;SDS011;3730;50.856;12.776;2022-09-12T00:33:18;15.23;;;12.30;;
7377;SDS011;3730;50.856;12.776;2022-09-12T00:35:45;12.63;;;11.23;;
7377;SDS011;3730;50.856;12.776;2022-09-12T00:38:11;13.67;;;12.17;;
7377;SDS011;3730;50.856;12.776;2022-09-12T00:40:37;14.47;;;11.43;;
7377;SDS011;3730;50.856;12.776;2022-09-12T00:43:04;14.00;;;12.50;;
7377;SDS011;3730;50.856;12.776;2022-09-12T00:45:30;13.23;;;11.83;;
7377;SDS011;3730;50.856;12.776;2022-09-12T00:47:57;12.47;;;11.13;;
7377;SDS011;3730;50.856;12.776;2022-09-12T00:50:24;12.63;;;11.33;;
7377;SDS011;3730;50.856;12.776;2022-09-12T00:53:03;13.20;;;11.83;;
7377;SDS011;3730;50.856;12.776;2022-09-12T00:55:32;14.50;;;12.23;;
7377;SDS011;3730;50.856;12.776;2022-09-12T00:58:10;14.13;;;12.70;;
7377;SDS011;3730;50.856;12.776;2022-09-12T01:00:37;14.47;;;11.90;;
7377;SDS011;3730;50.856;12.776;2022-09-12T01:03:07;14.33;;;11.17;;
7377;SDS011;3730;50.856;12.776;2022-09-12T01:05:35;13.40;;;11.93;;
7377;SDS011;3730;50.856;12.776;2022-09-12T01:08:02;14.37;;;12.57;;
7377;SDS011;3730;50.856;12.776;2022-09-12T01:10:29;14.57;;;12.50;;
7377;SDS011;3730;50.856;12.776;2022-09-12T01:12:56;14.27;;;12.77;;
7377;SDS011;3730;50.856;12.776;2022-09-12T01:15:22;14.50;;;12.33;;
7377;SDS011;3730;50.856;12.776;2022-09-12T01:18:04;14.83;;;12.03;;
7377;SDS011;3730;50.856;12.776;2022-09-12T01:31:14;17.93;;;14.13;;
7377;SDS011;3730;50.856;12.776;2022-09-12T01:41:32;15.73;;;13.83;;
7377;SDS011;3730;50.856;12.776;2022-09-12T01:44:07;17.07;;;13.47;;
7377;SDS011;3730;50.856;12.776;2022-09-12T01:46:41;18.40;;;13.93;;
7377;SDS011;3730;50.856;12.776;2022-09-12T01:49:11;15.30;;;13.10;;
7377;SDS011;3730;50.856;12.776;2022-09-12T01:51:41;18.30;;;13.60;;
7377;SDS011;3730;50.856;12.776;2022-09-12T01:54:19;17.57;;;13.60;;
7377;SDS011;3730;50.856;12.776;2022-09-12T01:56:47;20.83;;;13.90;;
7377;SDS011;3730;50.856;12.776;2022-09-12T02:01:46;15.67;;;13.47;;
7377;SDS011;3730;50.856;12.776;2022-09-12T02:04:15;18.40;;;13.43;;
7377;SDS011;3730;50.856;12.776;2022-09-12T02:07:01;19.20;;;14.90;;
7377;SDS011;3730;50.856;12.776;2022-09-12T02:09:35;15.47;;;12.87;;
7377;SDS011;3730;50.856;12.776;2022-09-12T02:12:02;15.33;;;11.90;;
7377;SDS011;3730;50.856;12.776;2022-09-12T02:14:40;18.13;;;14.37;;
7377;SDS011;3730;50.856;12.776;2022-09-12T02:17:11;15.43;;;12.80;;
7377;SDS011;3730;50.856;12.776;2022-09-12T02:19:42;16.67;;;13.40;;
7377;SDS011;3730;50.856;12.776;2022-09-12T02:22:10;18.20;;;14.13;;
7377;SDS011;3730;50.856;12.776;2022-09-12T02:24:39;16.83;;;14.03;;
7377;SDS011;3730;50.856;12.776;2022-09-12T02:27:08;18.77;;;15.37;;
7377;SDS011;3730;50.856;12.776;2022-09-12T02:29:36;17.67;;;14.17;;
7377;SDS011;3730;50.856;12.776;2022-09-12T02:32:09;22.70;;;17.83;;
7377;SDS011;3730;50.856;12.776;2022-09-12T02:34:56;18.53;;;14.47;;
7377;SDS011;3730;50.856;12.776;2022-09-12T02:39:50;17.50;;;13.30;;
7377;SDS011;3730;50.856;12.776;2022-09-12T02:42:18;20.33;;;15.57;;
7377;SDS011;3730;50.856;12.776;2022-09-12T02:44:44;16.17;;;13.30;;
7377;SDS011;3730;50.856;12.776;2022-09-12T02:47:22;17.80;;;13.73;;
7377;SDS011;3730;50.856;12.776;2022-09-12T02:49:52;16.47;;;13.67;;
7377;SDS011;3730;50.856;12.776;2022-09-12T02:52:18;17.73;;;14.17;;
7377;SDS011;3730;50.856;12.776;2022-09-12T02:54:44;17.37;;;13.67;;
7377;SDS011;3730;50.856;12.776;2022-09-12T02:57:14;18.63;;;14.70;;
7377;SDS011;3730;50.856;12.776;2022-09-12T02:59:41;16.40;;;14.40;;
7377;SDS011;3730;50.856;12.776;2022-09-12T03:02:23;17.23;;;14.00;;
7377;SDS011;3730;50.856;12.776;2022-09-12T03:17:36;20.77;;;15.67;;
7377;SDS011;3730;50.856;12.776;2022-09-12T03:20:12;20.93;;;15.50;;
7377;SDS011;3730;50.856;12.776;2022-09-12T03:25:18;20.57;;;16.00;;
7377;SDS011;3730;50.856;12.776;2022-09-12T03:27:59;18.23;;;14.90;;
7377;SDS011;3730;50.856;12.776;2022-09-12T03:30:35;21.60;;;15.33;;
7377;SDS011;3730;50.856;12.776;2022-09-12T03:33:02;21.07;;;15.93;;
7377;SDS011;3730;50.856;12.776;2022-09-12T03:35:28;18.80;;;15.03;;
7377;SDS011;3730;50.856;12.776;2022-09-12T03:37:54;19.30;;;15.67;;
7377;SDS011;3730;50.856;12.776;2022-09-12T03:40:20;18.57;;;14.63;;
7377;SDS011;3730;50.856;12.776;2022-09-12T03:42:46;20.63;;;16.37;;
7377;SDS011;3730;50.856;12.776;2022-09-12T03:45:12;25.33;;;16.50;;
7377;SDS011;3730;50.856;12.776;2022-09-12T03:47:40;22.40;;;16.60;;
7377;SDS011;3730;50.856;12.776;2022-09-12T03:50:06;20.20;;;16.20;;
7377;SDS011;3730;50.856;12.776;2022-09-12T03:52:32;18.37;;;15.60;;
7377;SDS011;3730;50.856;12.776;2022-09-12T03:54:58;18.73;;;13.73;;
7377;SDS011;3730;50.856;12.776;2022-09-12T03:57:24;20.97;;;16.33;;
7377;SDS011;3730;50.856;12.776;2022-09-12T03:59:50;21.10;;;15.67;;
7377;SDS011;3730;50.856;12.776;2022-09-12T04:02:16;21.97;;;16.47;;
7377;SDS011;3730;50.856;12.776;2022-09-12T04:04:43;21.50;;;15.57;;
7377;SDS011;3730;50.856;12.776;2022-09-12T04:07:10;21.33;;;16.67;;
7377;SDS011;3730;50.856;12.776;2022-09-12T04:09:36;21.53;;;15.07;;
7377;SDS011;3730;50.856;12.776;2022-09-12T04:12:02;25.40;;;17.27;;
7377;SDS011;3730;50.856;12.776;2022-09-12T04:14:28;20.90;;;15.37;;
7377;SDS011;3730;50.856;12.776;2022-09-12T04:16:54;21.20;;;15.70;;
7377;SDS011;3730;50.856;12.776;2022-09-12T04:19:20;21.40;;;15.90;;
7377;SDS011;3730;50.856;12.776;2022-09-12T04:21:47;21.90;;;15.50;;
7377;SDS011;3730;50.856;12.776;2022-09-12T04:24:13;22.73;;;15.80;;
7377;SDS011;3730;50.856;12.776;2022-09-12T04:26:39;23.83;;;15.53;;
7377;SDS011;3730;50.856;12.776;2022-09-12T04:29:05;19.23;;;14.87;;
7377;SDS011;3730;50.856;12.776;2022-09-12T04:31:31;21.67;;;15.83;;
7377;SDS011;3730;50.856;12.776;2022-09-12T04:33:58;21.93;;;15.00;;
7377;SDS011;3730;50.856;12.776;2022-09-12T04:36:25;19.43;;;15.17;;
7377;SDS011;3730;50.856;12.776;2022-09-12T04:38:53;20.27;;;14.63;;
7377;SDS011;3730;50.856;12.776;2022-09-12T04:41:26;20.43;;;15.33;;
7377;SDS011;3730;50.856;12.776;2022-09-12T04:43:54;40.10;;;28.97;;
7377;SDS011;3730;50.856;12.776;2022-09-12T04:46:22;130.77;;;72.67;;
7377;SDS011;3730;50.856;12.776;2022-09-12T04:48:48;166.03;;;90.80;;
7377;SDS011;3730;50.856;12.776;2022-09-12T04:51:15;108.87;;;57.30;;
7377;SDS011;3730;50.856;12.776;2022-09-12T04:53:47;70.10;;;37.30;;
7377;SDS011;3730;50.856;12.776;2022-09-12T04:56:13;31.43;;;21.40;;
7377;SDS011;3730;50.856;12.776;2022-09-12T04:58:48;22.40;;;17.13;;
7377;SDS011;3730;50.856;12.776;2022-09-12T05:01:26;24.30;;;18.07;;
7377;SDS011;3730;50.856;12.776;2022-09-12T05:03:53;19.47;;;15.33;;
7377;SDS011;3730;50.856;12.776;2022-09-12T05:06:23;19.37;;;15.53;;
7377;SDS011;3730;50.856;12.776;2022-09-12T05:08:50;22.27;;;17.10;;
7377;SDS011;3730;50.856;12.776;2022-09-12T05:11:17;21.27;;;15.57;;
7377;SDS011;3730;50.856;12.776;2022-09-12T05:13:43;23.50;;;17.27;;
7377;SDS011;3730;50.856;12.776;2022-09-12T05:16:10;20.43;;;14.67;;
7377;SDS011;3730;50.856;12.776;2022-09-12T05:18:37;22.33;;;16.83;;
7377;SDS011;3730;50.856;12.776;2022-09-12T05:21:04;25.07;;;18.90;;
7377;SDS011;3730;50.856;12.776;2022-09-12T05:23:31;22.43;;;16.17;;
7377;SDS011;3730;50.856;12.776;2022-09-12T05:25:58;22.17;;;16.07;;
7377;SDS011;3730;50.856;12.776;2022-09-12T05:28:27;22.33;;;16.17;;
7377;SDS011;3730;50.856;12.776;2022-09-12T05:33:26;20.60;;;14.90;;
7377;SDS011;3730;50.856;12.776;2022-09-12T05:35:52;18.73;;;14.43;;
7377;SDS011;3730;50.856;12.776;2022-09-12T05:38:18;22.90;;;16.80;;
7377;SDS011;3730;50.856;12.776;2022-09-12T05:40:44;19.23;;;15.20;;
7377;SDS011;3730;50.856;12.776;2022-09-12T05:43:10;22.50;;;15.40;;
7377;SDS011;3730;50.856;12.776;2022-09-12T05:45:36;19.17;;;14.33;;
7377;SDS011;3730;50.856;12.776;2022-09-12T05:48:02;18.87;;;14.77;;
7377;SDS011;3730;50.856;12.776;2022-09-12T05:50:28;20.80;;;15.17;;
7377;SDS011;3730;50.856;12.776;2022-09-12T05:52:57;19.80;;;15.40;;
7377;SDS011;3730;50.856;12.776;2022-09-12T05:55:23;19.90;;;15.07;;
7377;SDS011;3730;50.856;12.776;2022-09-12T05:57:50;22.13;;;15.07;;
7377;SDS011;3730;50.856;12.776;2022-09-12T06:00:16;20.70;;;14.43;;
7377;SDS011;3730;50.856;12.776;2022-09-12T06:02:44;19.20;;;15.57;;
7377;SDS011;3730;50.856;12.776;2022-09-12T06:05:15;20.63;;;15.53;;
7377;SDS011;3730;50.856;12.776;2022-09-12T06:07:44;26.53;;;16.43;;
7377;SDS011;3730;50.856;12.776;2022-09-12T06:10:10;20.87;;;15.20;;
7377;SDS011;3730;50.856;12.776;2022-09-12T06:12:36;17.97;;;14.70;;
7377;SDS011;3730;50.856;12.776;2022-09-12T06:15:02;18.93;;;15.20;;
7377;SDS011;3730;50.856;12.776;2022-09-12T06:17:28;19.93;;;15.17;;
7377;SDS011;3730;50.856;12.776;2022-09-12T06:19:54;25.97;;;16.03;;
7377;SDS011;3730;50.856;12.776;2022-09-12T06:22:20;17.73;;;14.50;;
7377;SDS011;3730;50.856;12.776;2022-09-12T06:24:46;22.90;;;15.37;;
7377;SDS011;3730;50.856;12.776;2022-09-12T06:27:12;20.20;;;15.87;;
7377;SDS011;3730;50.856;12.776;2022-09-12T06:29:39;19.43;;;14.77;;
7377;SDS011;3730;50.856;12.776;2022-09-12T06:32:05;23.10;;;16.63;;
7377;SDS011;3730;50.856;12.776;2022-09-12T06:34:31;22.63;;;16.57;;
7377;SDS011;3730;50.856;12.776;2022-09-12T06:36:57;19.77;;;15.73;;
7377;SDS011;3730;50.856;12.776;2022-09-12T06:39:23;21.30;;;15.40;;
7377;SDS011;3730;50.856;12.776;2022-09-12T06:41:50;19.23;;;15.63;;
7377;SDS011;3730;50.856;12.776;2022-09-12T06:44:17;17.97;;;14.10;;
7377;SDS011;3730;50.856;12.776;2022-09-12T06:46:43;20.83;;;15.17;;
7377;SDS011;3730;50.856;12.776;2022-09-12T06:49:10;25.13;;;16.80;;
7377;SDS011;3730;50.856;12.776;2022-09-12T06:51:36;20.27;;;14.23;;
7377;SDS011;3730;50.856;12.776;2022-09-12T06:54:02;26.20;;;18.67;;
7377;SDS011;3730;50.856;12.776;2022-09-12T06:56:29;21.50;;;16.20;;
7377;SDS011;3730;50.856;12.776;2022-09-12T06:59:05;20.03;;;14.80;;
7377;SDS011;3730;50.856;12.776;2022-09-12T07:01:31;18.13;;;14.33;;
7377;SDS011;3730;50.856;12.776;2022-09-12T07:03:58;19.60;;;15.40;;
7377;SDS011;3730;50.856;12.776;2022-09-12T07:06:28;23.90;;;17.07;;
7377;SDS011;3730;50.856;12.776;2022-09-12T07:08:59;20.93;;;15.03;;
7377;SDS011;3730;50.856;12.776;2022-09-12T07:11:26;22.00;;;14.20;;
7377;SDS011;3730;50.856;12.776;2022-09-12T07:13:53;22.60;;;16.80;;
7377;SDS011;3730;50.856;12.776;2022-09-12T07:16:20;21.37;;;14.73;;
7377;SDS011;3730;50.856;12.776;2022-09-12T07:18:49;21.97;;;15.40;;
7377;SDS011;3730;50.856;12.776;2022-09-12T07:21:16;20.13;;;15.73;;
7377;SDS011;3730;50.856;12.776;2022-09-12T07:23:42;20.87;;;14.00;;
7377;SDS011;3730;50.856;12.776;2022-09-12T07:26:09;21.43;;;16.47;;
7377;SDS011;3730;50.856;12.776;2022-09-12T07:28:36;19.10;;;15.23;;
7377;SDS011;3730;50.856;12.776;2022-09-12T07:33:31;16.97;;;13.70;;
7377;SDS011;3730;50.856;12.776;2022-09-12T07:36:01;21.77;;;15.33;;
7377;SDS011;3730;50.856;12.776;2022-09-12T07:38:27;25.50;;;16.90;;
7377;SDS011;3730;50.856;12.776;2022-09-12T07:40:53;19.43;;;14.37;;
7377;SDS011;3730;50.856;12.776;2022-09-12T07:43:19;23.07;;;15.00;;
7377;SDS011;3730;50.856;12.776;2022-09-12T07:45:45;20.43;;;15.00;;
7377;SDS011;3730;50.856;12.776;2022-09-12T07:48:11;18.37;;;13.63;;
7377;SDS011;3730;50.856;12.776;2022-09-12T07:50:38;19.63;;;14.13;;
7377;SDS011;3730;50.856;12.776;2022-09-12T07:53:03;18.17;;;13.27;;
7377;SDS011;3730;50.856;12.776;2022-09-12T07:55:30;17.53;;;13.77;;
7377;SDS011;3730;50.856;12.776;2022-09-12T07:57:56;17.67;;;12.87;;
7377;SDS011;3730;50.856;12.776;2022-09-12T08:00:22;16.73;;;11.33;;
7377;SDS011;3730;50.856;12.776;2022-09-12T08:02:52;17.33;;;12.60;;
7377;SDS011;3730;50.856;12.776;2022-09-12T08:05:19;17.83;;;13.27;;
7377;SDS011;3730;50.856;12.776;2022-09-12T08:07:45;16.60;;;11.60;;
7377;SDS011;3730;50.856;12.776;2022-09-12T08:10:11;15.87;;;11.83;;
7377;SDS011;3730;50.856;12.776;2022-09-12T08:12:37;15.10;;;13.10;;
7377;SDS011;3730;50.856;12.776;2022-09-12T08:15:03;15.90;;;12.80;;
7377;SDS011;3730;50.856;12.776;2022-09-12T08:17:29;13.73;;;10.70;;
7377;SDS011;3730;50.856;12.776;2022-09-12T08:19:55;12.97;;;10.30;;
7377;SDS011;3730;50.856;12.776;2022-09-12T08:22:21;15.90;;;12.57;;
7377;SDS011;3730;50.856;12.776;2022-09-12T08:24:48;14.37;;;10.93;;
7377;SDS011;3730;50.856;12.776;2022-09-12T08:27:14;12.27;;;9.33;;
7377;SDS011;3730;50.856;12.776;2022-09-12T08:29:40;10.53;;;8.13;;
7377;SDS011;3730;50.856;12.776;2022-09-12T08:32:06;8.17;;;6.87;;
7377;SDS011;3730;50.856;12.776;2022-09-12T08:34:32;9.03;;;6.77;;
7377;SDS011;3730;50.856;12.776;2022-09-12T08:36:58;10.73;;;8.70;;
7377;SDS011;3730;50.856;12.776;2022-09-12T08:39:24;8.93;;;7.90;;
7377;SDS011;3730;50.856;12.776;2022-09-12T08:41:57;10.63;;;7.50;;
7377;SDS011;3730;50.856;12.776;2022-09-12T08:49:31;10.87;;;7.87;;
7377;SDS011;3730;50.856;12.776;2022-09-12T08:51:58;8.27;;;6.70;;
7377;SDS011;3730;50.856;12.776;2022-09-12T08:54:26;8.20;;;5.80;;
7377;SDS011;3730;50.856;12.776;2022-09-12T08:56:56;7.23;;;6.00;;
7377;SDS011;3730;50.856;12.776;2022-09-12T08:59:25;9.80;;;6.30;;
7377;SDS011;3730;50.856;12.776;2022-09-12T09:01:51;8.43;;;6.40;;
7377;SDS011;3730;50.856;12.776;2022-09-12T09:12:17;10.00;;;6.73;;
7377;SDS011;3730;50.856;12.776;2022-09-12T09:17:43;9.10;;;6.60;;
7377;SDS011;3730;50.856;12.776;2022-09-12T09:20:14;8.00;;;6.60;;
7377;SDS011;3730;50.856;12.776;2022-09-12T09:25:14;6.60;;;5.33;;
7377;SDS011;3730;50.856;12.776;2022-09-12T09:27:44;6.40;;;5.13;;
7377;SDS011;3730;50.856;12.776;2022-09-12T09:30:15;4.03;;;3.73;;
7377;SDS011;3730;50.856;12.776;2022-09-12T09:32:42;7.93;;;5.90;;
7377;SDS011;3730;50.856;12.776;2022-09-12T09:35:17;7.10;;;6.40;;
7377;SDS011;3730;50.856;12.776;2022-09-12T09:38:27;5.87;;;5.37;;
7377;SDS011;3730;50.856;12.776;2022-09-12T09:43:04;7.97;;;7.20;;
7377;SDS011;3730;50.856;12.776;2022-09-12T09:45:31;9.27;;;6.57;;
7377;SDS011;3730;50.856;12.776;2022-09-12T09:47:59;6.23;;;5.70;;
7377;SDS011;3730;50.856;12.776;2022-09-12T09:50:26;6.77;;;6.07;;
7377;SDS011;3730;50.856;12.776;2022-09-12T09:52:52;7.00;;;6.17;;
7377;SDS011;3730;50.856;12.776;2022-09-12T09:55:22;5.57;;;5.07;;
7377;SDS011;3730;50.856;12.776;2022-09-12T09:57:49;6.33;;;4.90;;
7377;SDS011;3730;50.856;12.776;2022-09-12T10:00:33;7.77;;;4.97;;
7377;SDS011;3730;50.856;12.776;2022-09-12T10:05:33;4.03;;;3.73;;
7377;SDS011;3730;50.856;12.776;2022-09-12T10:07:59;4.63;;;3.50;;
7377;SDS011;3730;50.856;12.776;2022-09-12T10:10:25;4.80;;;4.17;;
7377;SDS011;3730;50.856;12.776;2022-09-12T10:13:05;4.40;;;3.80;;
7377;SDS011;3730;50.856;12.776;2022-09-12T10:15:31;3.43;;;3.23;;
7377;SDS011;3730;50.856;12.776;2022-09-12T10:17:58;3.97;;;3.67;;
7377;SDS011;3730;50.856;12.776;2022-09-12T10:20:29;3.70;;;3.40;;
7377;SDS011;3730;50.856;12.776;2022-09-12T10:22:55;7.60;;;4.00;;
7377;SDS011;3730;50.856;12.776;2022-09-12T10:25:22;5.70;;;5.20;;
7377;SDS011;3730;50.856;12.776;2022-09-12T10:27:54;5.33;;;4.90;;
7377;SDS011;3730;50.856;12.776;2022-09-12T10:30:21;5.10;;;4.60;;
7377;SDS011;3730;50.856;12.776;2022-09-12T10:32:52;5.30;;;4.60;;
7377;SDS011;3730;50.856;12.776;2022-09-12T10:35:20;5.40;;;4.83;;
7377;SDS011;3730;50.856;12.776;2022-09-12T10:40:26;3.83;;;3.53;;
7377;SDS011;3730;50.856;12.776;2022-09-12T10:42:53;4.30;;;3.77;;
7377;SDS011;3730;50.856;12.776;2022-09-12T10:47:46;4.70;;;4.30;;
7377;SDS011;3730;50.856;12.776;2022-09-12T10:50:18;4.50;;;4.10;;
7377;SDS011;3730;50.856;12.776;2022-09-12T10:52:44;4.50;;;4.10;;
7377;SDS011;3730;50.856;12.776;2022-09-12T10:55:12;4.40;;;4.00;;
7377;SDS011;3730;50.856;12.776;2022-09-12T11:02:50;5.63;;;4.30;;
7377;SDS011;3730;50.856;12.776;2022-09-12T11:05:38;4.97;;;4.53;;
7377;SDS011;3730;50.856;12.776;2022-09-12T11:10:49;4.47;;;4.07;;
7377;SDS011;3730;50.856;12.776;2022-09-12T11:20:53;3.70;;;3.40;;
7377;SDS011;3730;50.856;12.776;2022-09-12T11:23:25;6.00;;;3.80;;
7377;SDS011;3730;50.856;12.776;2022-09-12T11:31:16;10.80;;;4.40;;
7377;SDS011;3730;50.856;12.776;2022-09-12T11:33:49;4.13;;;3.80;;
7377;SDS011;3730;50.856;12.776;2022-09-12T11:41:36;5.07;;;4.67;;
7377;SDS011;3730;50.856;12.776;2022-09-12T11:46:35;3.93;;;3.57;;
7377;SDS011;3730;50.856;12.776;2022-09-12T11:49:04;4.30;;;4.00;;
7377;SDS011;3730;50.856;12.776;2022-09-12T11:51:34;4.50;;;4.13;;
7377;SDS011;3730;50.856;12.776;2022-09-12T11:56:30;3.70;;;3.00;;
7377;SDS011;3730;50.856;12.776;2022-09-12T11:59:02;3.63;;;3.13;;
7377;SDS011;3730;50.856;12.776;2022-09-12T12:01:37;3.83;;;3.53;;
7377;SDS011;3730;50.856;12.776;2022-09-12T12:04:05;3.83;;;3.30;;
7377;SDS011;3730;50.856;12.776;2022-09-12T12:06:34;3.70;;;3.40;;
7377;SDS011;3730;50.856;12.776;2022-09-12T12:09:03;5.83;;;3.17;;
7377;SDS011;3730;50.856;12.776;2022-09-12T12:11:30;3.70;;;3.40;;
7377;SDS011;3730;50.856;12.776;2022-09-12T12:13:59;4.17;;;3.83;;
7377;SDS011;3730;50.856;12.776;2022-09-12T12:16:27;9.57;;;4.23;;
7377;SDS011;3730;50.856;12.776;2022-09-12T12:18:55;6.53;;;4.77;;
7377;SDS011;3730;50.856;12.776;2022-09-12T12:24:11;3.80;;;3.50;;
7377;SDS011;3730;50.856;12.776;2022-09-12T12:36:52;4.23;;;3.70;;
7377;SDS011;3730;50.856;12.776;2022-09-12T12:41:57;3.67;;;3.37;;
7377;SDS011;3730;50.856;12.776;2022-09-12T12:44:46;4.77;;;3.17;;
7377;SDS011;3730;50.856;12.776;2022-09-12T12:47:21;3.67;;;3.47;;
7377;SDS011;3730;50.856;12.776;2022-09-12T12:49:54;3.97;;;3.67;;
7377;SDS011;3730;50.856;12.776;2022-09-12T12:52:22;4.40;;;4.00;;
7377;SDS011;3730;50.856;12.776;2022-09-12T12:54:50;6.60;;;3.80;;
7377;SDS011;3730;50.856;12.776;2022-09-12T12:57:18;4.40;;;4.00;;
7377;SDS011;3730;50.856;12.776;2022-09-12T12:59:52;3.70;;;3.40;;
7377;SDS011;3730;50.856;12.776;2022-09-12T13:02:21;3.73;;;3.43;;
7377;SDS011;3730;50.856;12.776;2022-09-12T13:04:48;4.20;;;3.90;;
7377;SDS011;3730;50.856;12.776;2022-09-12T13:07:25;4.00;;;3.70;;
7377;SDS011;3730;50.856;12.776;2022-09-12T13:09:52;3.67;;;3.33;;
7377;SDS011;3730;50.856;12.776;2022-09-12T13:12:43;4.37;;;3.20;;
7377;SDS011;3730;50.856;12.776;2022-09-12T13:17:56;3.90;;;3.60;;
7377;SDS011;3730;50.856;12.776;2022-09-12T13:20:23;4.27;;;3.87;;
7377;SDS011;3730;50.856;12.776;2022-09-12T13:22:51;4.50;;;3.90;;
7377;SDS011;3730;50.856;12.776;2022-09-12T13:25:25;4.40;;;3.97;;
7377;SDS011;3730;50.856;12.776;2022-09-12T13:27:58;7.43;;;4.20;;
7377;SDS011;3730;50.856;12.776;2022-09-12T13:30:24;3.33;;;3.07;;
7377;SDS011;3730;50.856;12.776;2022-09-12T13:32:51;3.70;;;3.27;;
7377;SDS011;3730;50.856;12.776;2022-09-12T13:40:26;4.03;;;3.73;;
7377;SDS011;3730;50.856;12.776;2022-09-12T13:45:42;3.37;;;3.17;;
7377;SDS011;3730;50.856;12.776;2022-09-12T13:48:12;4.00;;;3.70;;
7377;SDS011;3730;50.856;12.776;2022-09-12T13:50:41;3.63;;;3.33;;
7377;SDS011;3730;50.856;12.776;2022-09-12T13:53:16;3.90;;;3.60;;
7377;SDS011;3730;50.856;12.776;2022-09-12T13:55:44;4.20;;;3.50;;
7377;SDS011;3730;50.856;12.776;2022-09-12T13:58:15;4.40;;;4.00;;
7377;SDS011;3730;50.856;12.776;2022-09-12T14:00:41;4.13;;;3.80;;
7377;SDS011;3730;50.856;12.776;2022-09-12T14:03:27;3.53;;;3.23;;
7377;SDS011;3730;50.856;12.776;2022-09-12T14:06:12;3.50;;;3.20;;
7377;SDS011;3730;50.856;12.776;2022-09-12T14:08:40;3.17;;;2.97;;
7377;SDS011;3730;50.856;12.776;2022-09-12T14:11:07;3.80;;;3.50;;
7377;SDS011;3730;50.856;12.776;2022-09-12T14:13:34;3.37;;;3.07;;
7377;SDS011;3730;50.856;12.776;2022-09-12T14:16:02;3.10;;;2.90;;
7377;SDS011;3730;50.856;12.776;2022-09-12T14:18:33;4.70;;;3.60;;
7377;SDS011;3730;50.856;12.776;2022-09-12T14:21:06;2.97;;;2.73;;
7377;SDS011;3730;50.856;12.776;2022-09-12T14:23:34;4.80;;;3.00;;
7377;SDS011;3730;50.856;12.776;2022-09-12T14:26:05;3.90;;;2.90;;
7377;SDS011;3730;50.856;12.776;2022-09-12T14:28:35;6.77;;;3.33;;
7377;SDS011;3730;50.856;12.776;2022-09-12T14:33:47;3.10;;;2.90;;
7377;SDS011;3730;50.856;12.776;2022-09-12T14:36:24;4.60;;;3.33;;
7377;SDS011;3730;50.856;12.776;2022-09-12T14:38:52;3.90;;;2.80;;
7377;SDS011;3730;50.856;12.776;2022-09-12T14:41:26;3.60;;;2.60;;
7377;SDS011;3730;50.856;12.776;2022-09-12T14:43:55;2.83;;;2.63;;
7377;SDS011;3730;50.856;12.776;2022-09-12T14:46:29;3.60;;;2.90;;
7377;SDS011;3730;50.856;12.776;2022-09-12T14:51:34;4.73;;;2.80;;
7377;SDS011;3730;50.856;12.776;2022-09-12T14:54:02;4.63;;;2.60;;
7377;SDS011;3730;50.856;12.776;2022-09-12T14:56:41;2.60;;;2.40;;
7377;SDS011;3730;50.856;12.776;2022-09-12T15:10:30;2.43;;;2.33;;
7377;SDS011;3730;50.856;12.776;2022-09-12T15:13:18;2.80;;;2.60;;
7377;SDS011;3730;50.856;12.776;2022-09-12T15:15:55;4.90;;;2.60;;
7377;SDS011;3730;50.856;12.776;2022-09-12T15:18:26;3.63;;;2.50;;
7377;SDS011;3730;50.856;12.776;2022-09-12T15:21:00;2.70;;;2.50;;
7377;SDS011;3730;50.856;12.776;2022-09-12T15:26:04;2.70;;;2.50;;
7377;SDS011;3730;50.856;12.776;2022-09-12T15:28:30;3.83;;;2.70;;
7377;SDS011;3730;50.856;12.776;2022-09-12T15:30:56;5.77;;;2.70;;
7377;SDS011;3730;50.856;12.776;2022-09-12T15:33:24;4.63;;;2.60;;
7377;SDS011;3730;50.856;12.776;2022-09-12T15:35:51;2.80;;;2.50;;
7377;SDS011;3730;50.856;12.776;2022-09-12T15:38:18;2.57;;;2.37;;
7377;SDS011;3730;50.856;12.776;2022-09-12T15:40:44;2.93;;;2.03;;
7377;SDS011;3730;50.856;12.776;2022-09-12T15:43:16;2.70;;;2.30;;
7377;SDS011;3730;50.856;12.776;2022-09-12T15:45:43;2.27;;;2.17;;
7377;SDS011;3730;50.856;12.776;2022-09-12T15:48:09;3.87;;;2.83;;
7377;SDS011;3730;50.856;12.776;2022-09-12T15:50:35;2.83;;;2.63;;
7377;SDS011;3730;50.856;12.776;2022-09-12T15:53:01;4.63;;;3.00;;
7377;SDS011;3730;50.856;12.776;2022-09-12T15:55:28;3.37;;;3.17;;
7377;SDS011;3730;50.856;12.776;2022-09-12T15:57:54;3.33;;;3.13;;
7377;SDS011;3730;50.856;12.776;2022-09-12T16:00:20;3.60;;;3.30;;
7377;SDS011;3730;50.856;12.776;2022-09-12T16:02:48;3.70;;;3.40;;
7377;SDS011;3730;50.856;12.776;2022-09-12T16:05:16;3.30;;;3.10;;
7377;SDS011;3730;50.856;12.776;2022-09-12T16:07:42;3.57;;;3.37;;
7377;SDS011;3730;50.856;12.776;2022-09-12T16:10:15;3.40;;;3.10;;
7377;SDS011;3730;50.856;12.776;2022-09-12T16:12:42;4.13;;;3.83;;
7377;SDS011;3730;50.856;12.776;2022-09-12T16:15:12;5.27;;;3.27;;
7377;SDS011;3730;50.856;12.776;2022-09-12T16:17:38;4.23;;;3.83;;
7377;SDS011;3730;50.856;12.776;2022-09-12T16:20:04;4.03;;;3.63;;
7377;SDS011;3730;50.856;12.776;2022-09-12T16:22:30;3.83;;;3.53;;
7377;SDS011;3730;50.856;12.776;2022-09-12T16:24:56;4.30;;;3.73;;
7377;SDS011;3730;50.856;12.776;2022-09-12T16:27:22;3.77;;;3.43;;
7377;SDS011;3730;50.856;12.776;2022-09-12T16:29:48;3.93;;;3.63;;
7377;SDS011;3730;50.856;12.776;2022-09-12T16:32:15;4.03;;;3.60;;
7377;SDS011;3730;50.856;12.776;2022-09-12T16:34:41;4.30;;;3.90;;
7377;SDS011;3730;50.856;12.776;2022-09-12T16:37:07;3.87;;;3.47;;
7377;SDS011;3730;50.856;12.776;2022-09-12T16:39:34;3.40;;;3.20;;
7377;SDS011;3730;50.856;12.776;2022-09-12T16:42:00;3.47;;;3.17;;
7377;SDS011;3730;50.856;12.776;2022-09-12T16:44:26;3.87;;;3.57;;
7377;SDS011;3730;50.856;12.776;2022-09-12T16:46:52;3.50;;;3.20;;
7377;SDS011;3730;50.856;12.776;2022-09-12T16:49:18;4.07;;;3.30;;
7377;SDS011;3730;50.856;12.776;2022-09-12T16:51:45;3.87;;;3.50;;
7377;SDS011;3730;50.856;12.776;2022-09-12T16:54:12;6.23;;;3.63;;
7377;SDS011;3730;50.856;12.776;2022-09-12T16:56:38;4.60;;;4.20;;
7377;SDS011;3730;50.856;12.776;2022-09-12T16:59:05;4.40;;;4.00;;
7377;SDS011;3730;50.856;12.776;2022-09-12T17:01:31;4.40;;;4.00;;
7377;SDS011;3730;50.856;12.776;2022-09-12T17:03:58;4.30;;;3.90;;
7377;SDS011;3730;50.856;12.776;2022-09-12T17:06:25;4.03;;;3.63;;
7377;SDS011;3730;50.856;12.776;2022-09-12T17:08:52;4.13;;;3.60;;
7377;SDS011;3730;50.856;12.776;2022-09-12T17:11:19;3.53;;;3.30;;
7377;SDS011;3730;50.856;12.776;2022-09-12T17:13:55;4.13;;;3.20;;
7377;SDS011;3730;50.856;12.776;2022-09-12T17:16:21;4.63;;;3.60;;
7377;SDS011;3730;50.856;12.776;2022-09-12T17:18:48;3.60;;;3.30;;
7377;SDS011;3730;50.856;12.776;2022-09-12T17:21:14;3.73;;;3.37;;
7377;SDS011;3730;50.856;12.776;2022-09-12T17:23:40;4.10;;;2.90;;
7377;SDS011;3730;50.856;12.776;2022-09-12T17:26:07;3.43;;;3.20;;